createdAt,value
2023-01-08T00:02:12.685Z,9.79
2023-01-08T00:04:39.118Z,9.83
2023-01-08T00:07:05.506Z,9.84
2023-01-08T00:09:31.966Z,9.79
2023-01-08T00:11:58.422Z,9.81
2023-01-08T00:14:24.827Z,9.77
2023-01-08T00:16:51.905Z,9.77
2023-01-08T00:19:18.483Z,9.64
2023-01-08T00:21:44.835Z,9.68
2023-01-08T00:24:11.236Z,9.60
2023-01-08T00:26:37.740Z,9.52
2023-01-08T00:29:04.163Z,9.52
2023-01-08T00:31:30.595Z,9.52
2023-01-08T00:33:57.024Z,9.53
2023-01-08T00:36:23.455Z,9.47
2023-01-08T00:38:50.019Z,9.48
2023-01-08T00:41:17.126Z,9.43
2023-01-08T00:43:43.633Z,9.45
2023-01-08T00:46:10.130Z,9.45
2023-01-08T00:48:39.366Z,9.48
2023-01-08T00:51:08.354Z,9.50
2023-01-08T00:53:34.984Z,9.43
2023-01-08T00:56:03.305Z,9.40
2023-01-08T00:58:30.148Z,9.43
2023-01-08T01:00:56.615Z,9.41
2023-01-08T01:03:23.228Z,9.48
2023-01-08T01:05:50.061Z,9.54
2023-01-08T01:08:16.620Z,9.55
2023-01-08T01:10:43.107Z,9.52
2023-01-08T01:13:10.599Z,9.53
2023-01-08T01:15:37.015Z,9.57
2023-01-08T01:18:03.512Z,9.61
2023-01-08T01:20:29.974Z,9.59
2023-01-08T01:22:56.385Z,9.63
2023-01-08T01:25:22.819Z,9.59
2023-01-08T01:27:49.284Z,9.61
2023-01-08T01:30:15.855Z,9.59
2023-01-08T01:32:42.225Z,9.59
2023-01-08T01:35:09.063Z,9.57
2023-01-08T01:37:35.652Z,9.55
2023-01-08T01:40:02.657Z,9.49
2023-01-08T01:42:40.818Z,9.48
2023-01-08T01:45:18.008Z,9.44
2023-01-08T01:47:58.156Z,9.45
2023-01-08T01:50:30.392Z,9.48
2023-01-08T01:53:02.662Z,9.46
2023-01-08T01:55:31.538Z,9.44
2023-01-08T01:58:06.312Z,9.46
2023-01-08T02:00:34.640Z,9.44
2023-01-08T02:03:01.618Z,9.44
2023-01-08T02:06:07.198Z,9.41
2023-01-08T02:08:51.982Z,9.41
2023-01-08T02:11:44.545Z,9.36
2023-01-08T02:14:45.805Z,9.35
2023-01-08T02:17:17.750Z,9.32
2023-01-08T02:19:57.075Z,9.28
2023-01-08T02:22:49.681Z,9.27
2023-01-08T02:25:31.273Z,9.20
2023-01-08T02:28:02.714Z,9.28
2023-01-08T02:30:30.232Z,9.30
2023-01-08T02:32:56.635Z,9.31
2023-01-08T02:35:23.120Z,9.30
2023-01-08T02:37:49.605Z,9.25
2023-01-08T02:40:56.943Z,9.25
2023-01-08T02:43:36.085Z,9.24
2023-01-08T02:46:04.116Z,9.15
2023-01-08T02:48:41.877Z,9.15
2023-01-08T02:51:15.410Z,9.11
2023-01-08T02:53:45.795Z,9.13
2023-01-08T02:56:16.315Z,9.18
2023-01-08T02:58:44.367Z,9.14
2023-01-08T03:01:13.227Z,9.18
2023-01-08T03:03:43.299Z,9.16
2023-01-08T03:06:14.541Z,9.18
2023-01-08T03:08:43.706Z,9.20
2023-01-08T03:11:13.104Z,9.18
2023-01-08T03:13:51.137Z,9.19
2023-01-08T03:16:23.701Z,9.15
2023-01-08T03:18:55.327Z,9.08
2023-01-08T03:21:22.711Z,9.04
2023-01-08T03:23:50.670Z,9.08
2023-01-08T03:26:24.319Z,9.07
2023-01-08T03:28:54.646Z,9.06
2023-01-08T03:31:25.064Z,9.02
2023-01-08T03:33:51.819Z,9.04
2023-01-08T03:36:23.047Z,9.07
2023-01-08T03:38:59.549Z,9.07
2023-01-08T03:41:29.590Z,9.04
2023-01-08T03:43:56.925Z,9.09
2023-01-08T03:46:32.776Z,9.13
2023-01-08T03:49:00.836Z,9.12
2023-01-08T03:51:27.587Z,9.15
2023-01-08T03:53:58.713Z,9.13
2023-01-08T03:56:25.776Z,9.15
2023-01-08T03:58:52.176Z,9.11
2023-01-08T04:01:18.597Z,9.09
2023-01-08T04:03:45.057Z,9.05
2023-01-08T04:06:11.483Z,9.02
2023-01-08T04:08:37.911Z,9.01
2023-01-08T04:11:04.346Z,9.04
2023-01-08T04:13:30.724Z,9.04
2023-01-08T04:15:58.098Z,9.06
2023-01-08T04:18:24.575Z,9.08
2023-01-08T04:20:50.953Z,9.08
2023-01-08T04:23:17.423Z,8.96
2023-01-08T04:25:43.873Z,8.88
2023-01-08T04:28:10.392Z,8.94
2023-01-08T04:30:37.174Z,8.99
2023-01-08T04:33:03.707Z,8.97
2023-01-08T04:35:30.118Z,8.96
2023-01-08T04:37:56.470Z,8.86
2023-01-08T04:40:22.886Z,8.86
2023-01-08T04:42:50.270Z,8.84
2023-01-08T04:45:16.716Z,8.89
2023-01-08T04:47:43.123Z,8.84
2023-01-08T04:50:09.632Z,8.83
2023-01-08T04:52:36.716Z,8.85
2023-01-08T04:55:03.729Z,8.86
2023-01-08T04:57:30.138Z,8.86
2023-01-08T04:59:56.501Z,8.78
2023-01-08T05:02:23.030Z,8.75
2023-01-08T05:04:49.547Z,8.74
2023-01-08T05:07:16.222Z,8.73
2023-01-08T05:09:42.654Z,8.77
2023-01-08T05:12:09.166Z,8.76
2023-01-08T05:14:35.538Z,8.79
2023-01-08T05:17:01.995Z,8.80
2023-01-08T05:19:28.373Z,8.75
2023-01-08T05:21:54.824Z,8.68
2023-01-08T05:24:21.207Z,8.65
2023-01-08T05:26:48.054Z,8.66
2023-01-08T05:29:14.481Z,8.64
2023-01-08T05:31:40.928Z,8.65
2023-01-08T05:34:07.299Z,8.64
2023-01-08T05:36:33.817Z,8.65
2023-01-08T05:39:00.166Z,8.65
2023-01-08T05:41:26.525Z,8.66
2023-01-08T05:43:53.012Z,8.68
2023-01-08T05:46:19.572Z,8.66
2023-01-08T05:48:46.148Z,8.64
2023-01-08T05:51:12.531Z,8.56
2023-01-08T05:53:39.120Z,8.58
2023-01-08T05:56:09.231Z,8.55
2023-01-08T05:58:37.065Z,8.54
2023-01-08T06:01:12.512Z,8.55
2023-01-08T06:03:39.573Z,8.59
2023-01-08T06:06:07.515Z,8.60
2023-01-08T06:08:34.399Z,8.59
2023-01-08T06:11:02.531Z,8.60
2023-01-08T06:13:29.100Z,8.58
2023-01-08T06:15:55.713Z,8.60
2023-01-08T06:18:22.094Z,8.56
2023-01-08T06:20:48.562Z,8.58
2023-01-08T06:23:14.963Z,8.47
2023-01-08T06:25:41.344Z,8.47
2023-01-08T06:28:08.333Z,8.44
2023-01-08T06:30:34.790Z,8.40
2023-01-08T06:33:01.903Z,8.36
2023-01-08T06:35:28.583Z,8.35
2023-01-08T06:37:56.421Z,8.34
2023-01-08T06:40:23.655Z,8.30
2023-01-08T06:42:50.117Z,8.25
2023-01-08T06:45:16.712Z,8.30
2023-01-08T06:47:43.117Z,8.28
2023-01-08T06:50:09.784Z,8.31
2023-01-08T06:52:36.225Z,8.29
2023-01-08T06:55:04.728Z,8.23
2023-01-08T06:57:31.157Z,8.20
2023-01-08T06:59:57.800Z,8.24
2023-01-08T07:02:25.700Z,8.24
2023-01-08T07:04:52.358Z,8.24
2023-01-08T07:07:18.770Z,8.21
2023-01-08T07:09:45.255Z,8.22
2023-01-08T07:12:14.634Z,8.19
2023-01-08T07:14:41.688Z,8.16
2023-01-08T07:17:08.308Z,8.17
2023-01-08T07:19:34.982Z,8.16
2023-01-08T07:22:01.455Z,8.13
2023-01-08T07:24:28.092Z,8.09
2023-01-08T07:26:54.537Z,8.08
2023-01-08T07:29:20.924Z,8.02
2023-01-08T07:31:47.374Z,8.03
2023-01-08T07:34:15.337Z,8.04
2023-01-08T07:36:41.913Z,7.97
2023-01-08T07:39:08.284Z,7.96
2023-01-08T07:41:34.732Z,8.06
2023-01-08T07:44:01.577Z,8.00
2023-01-08T07:46:28.048Z,7.96
2023-01-08T07:48:56.108Z,7.95
2023-01-08T07:51:22.509Z,7.91
2023-01-08T07:53:48.988Z,7.87
2023-01-08T07:56:15.412Z,7.87
2023-01-08T07:58:41.886Z,7.87
2023-01-08T08:01:10.652Z,7.90
2023-01-08T08:03:38.894Z,7.86
2023-01-08T08:06:05.684Z,7.82
2023-01-08T08:08:32.126Z,7.82
2023-01-08T08:10:58.618Z,7.85
2023-01-08T08:13:25.063Z,7.84
2023-01-08T08:15:51.516Z,7.83
2023-01-08T08:18:18.038Z,7.83
2023-01-08T08:20:44.427Z,7.77
2023-01-08T08:23:13.820Z,7.78
2023-01-08T08:25:41.901Z,7.76
2023-01-08T08:28:10.515Z,7.78
2023-01-08T08:30:38.231Z,7.74
2023-01-08T08:33:06.973Z,7.76
2023-01-08T08:35:34.371Z,7.69
2023-01-08T08:38:01.139Z,7.74
2023-01-08T08:40:27.957Z,7.78
2023-01-08T08:42:59.099Z,7.81
2023-01-08T08:45:26.449Z,7.79
2023-01-08T08:47:53.260Z,7.79
2023-01-08T08:50:20.309Z,7.70
2023-01-08T08:52:48.714Z,7.76
2023-01-08T08:55:17.266Z,7.74
2023-01-08T08:57:45.370Z,7.77
2023-01-08T09:00:12.912Z,7.78
2023-01-08T09:02:39.398Z,7.83
2023-01-08T09:05:06.343Z,7.91
2023-01-08T09:07:33.788Z,7.96
2023-01-08T09:10:00.249Z,7.99
2023-01-08T09:12:26.643Z,8.01
2023-01-08T09:14:54.781Z,8.04
2023-01-08T09:17:21.608Z,7.96
2023-01-08T09:19:48.126Z,7.89
2023-01-08T09:22:14.563Z,7.93
2023-01-08T09:24:41.205Z,8.00
2023-01-08T09:27:09.611Z,8.01
2023-01-08T09:29:37.428Z,7.91
2023-01-08T09:32:07.103Z,8.03
2023-01-08T09:34:34.163Z,8.07
2023-01-08T09:37:00.598Z,8.02
2023-01-08T09:39:27.084Z,8.07
2023-01-08T09:41:55.510Z,8.16
2023-01-08T09:44:27.914Z,8.20
2023-01-08T09:46:56.036Z,8.28
2023-01-08T09:49:31.729Z,8.34
2023-01-08T09:51:59.312Z,8.37
2023-01-08T09:54:27.801Z,8.38
2023-01-08T09:56:54.411Z,8.47
2023-01-08T09:59:21.750Z,8.49
2023-01-08T10:01:48.662Z,8.38
2023-01-08T10:04:24.378Z,8.35
2023-01-08T10:07:09.464Z,8.31
2023-01-08T10:09:35.868Z,8.35
2023-01-08T10:12:05.186Z,8.36
2023-01-08T10:14:47.851Z,8.36
2023-01-08T10:17:21.918Z,8.41
2023-01-08T10:19:48.428Z,8.49
2023-01-08T10:22:20.930Z,8.47
2023-01-08T10:24:47.831Z,8.48
2023-01-08T10:27:16.727Z,8.46
2023-01-08T10:29:43.720Z,8.50
2023-01-08T10:32:15.922Z,8.47
2023-01-08T10:34:58.347Z,8.54
2023-01-08T10:37:29.427Z,8.56
2023-01-08T10:40:17.415Z,8.59
2023-01-08T10:42:43.919Z,8.59
2023-01-08T10:45:21.562Z,8.58
2023-01-08T10:47:50.659Z,8.59
2023-01-08T10:50:23.758Z,8.60
2023-01-08T10:52:56.011Z,8.55
2023-01-08T10:55:26.258Z,8.59
2023-01-08T10:57:59.207Z,8.52
2023-01-08T11:00:34.499Z,8.61
2023-01-08T11:03:05.366Z,8.66
2023-01-08T11:05:40.615Z,8.74
2023-01-08T11:08:14.735Z,8.70
2023-01-08T11:10:41.454Z,8.66
2023-01-08T11:13:17.251Z,8.71
2023-01-08T11:15:44.023Z,8.73
2023-01-08T11:18:17.071Z,8.79
2023-01-08T11:20:43.957Z,8.82
2023-01-08T11:23:25.539Z,8.78
2023-01-08T11:26:17.705Z,8.70
2023-01-08T11:29:00.007Z,8.76
2023-01-08T11:31:39.788Z,8.70
2023-01-08T11:34:18.067Z,8.78
2023-01-08T11:37:03.174Z,8.76
2023-01-08T11:39:30.101Z,8.80
2023-01-08T11:42:21.204Z,8.90
2023-01-08T11:45:16.127Z,8.90
2023-01-08T11:47:59.097Z,8.88
2023-01-08T11:50:35.203Z,8.98
2023-01-08T11:53:14.755Z,9.03
2023-01-08T11:56:16.257Z,8.96
2023-01-08T11:59:00.367Z,8.85
2023-01-08T12:01:48.589Z,8.90
2023-01-08T12:04:23.282Z,8.98
2023-01-08T12:07:18.776Z,8.94
2023-01-08T12:09:50.891Z,8.90
2023-01-08T12:12:46.625Z,8.96
2023-01-08T12:15:49.421Z,9.08
2023-01-08T12:18:50.939Z,9.12
2023-01-08T12:21:36.217Z,9.18
2023-01-08T12:24:23.975Z,9.30
2023-01-08T12:27:15.584Z,9.29
2023-01-08T12:30:06.370Z,9.35
2023-01-08T12:32:45.597Z,9.27
2023-01-08T12:35:25.968Z,9.22
2023-01-08T12:38:06.303Z,9.16
2023-01-08T12:40:36.797Z,9.18
2023-01-08T12:43:12.067Z,9.27
2023-01-08T12:45:46.731Z,9.35
2023-01-08T12:48:22.629Z,9.36
2023-01-08T12:50:56.711Z,9.26
2023-01-08T12:53:49.332Z,9.29
2023-01-08T12:56:33.428Z,9.36
2023-01-08T12:59:11.248Z,9.40
2023-01-08T13:02:08.319Z,9.46
2023-01-08T13:04:48.264Z,9.49
2023-01-08T13:07:27.039Z,9.61
2023-01-08T13:10:02.763Z,9.56
2023-01-08T13:12:40.835Z,9.64
2023-01-08T13:15:08.645Z,9.61
2023-01-08T13:17:37.712Z,9.61
2023-01-08T13:20:06.586Z,9.62
2023-01-08T13:22:36.113Z,9.53
2023-01-08T13:25:26.579Z,9.46
2023-01-08T13:27:53.278Z,9.41
2023-01-08T13:30:34.961Z,9.46
2023-01-08T13:33:02.552Z,9.45
2023-01-08T13:35:31.245Z,9.42
2023-01-08T13:38:09.878Z,9.47
2023-01-08T13:40:46.350Z,9.47
2023-01-08T13:43:30.377Z,9.46
2023-01-08T13:45:59.605Z,9.47
2023-01-08T13:48:29.366Z,9.32
2023-01-08T13:50:56.485Z,9.36
2023-01-08T13:53:24.224Z,9.30
2023-01-08T13:56:07.627Z,9.16
2023-01-08T13:58:38.742Z,9.12
2023-01-08T14:01:06.511Z,9.03
2023-01-08T14:03:37.874Z,9.09
2023-01-08T14:06:10.254Z,9.24
2023-01-08T14:08:36.668Z,9.37
2023-01-08T14:11:05.084Z,9.41
2023-01-08T14:13:35.584Z,9.41
2023-01-08T14:16:06.207Z,9.30
2023-01-08T14:18:32.982Z,9.28
2023-01-08T14:20:59.443Z,9.21
2023-01-08T14:23:34.641Z,9.21
2023-01-08T14:26:05.365Z,9.25
2023-01-08T14:28:32.208Z,9.16
2023-01-08T14:30:59.318Z,9.18
2023-01-08T14:33:36.647Z,9.24
2023-01-08T14:36:07.036Z,9.29
2023-01-08T14:38:33.587Z,9.34
2023-01-08T14:41:13.290Z,9.35
2023-01-08T14:43:43.861Z,9.24
2023-01-08T14:46:25.245Z,9.26
2023-01-08T14:48:54.298Z,9.29
2023-01-08T14:51:24.732Z,9.28
2023-01-08T14:53:55.873Z,9.18
2023-01-08T14:56:28.148Z,9.20
2023-01-08T14:58:55.405Z,9.20
2023-01-08T15:01:23.404Z,9.21
2023-01-08T15:03:51.725Z,9.15
2023-01-08T15:06:26.929Z,9.16
2023-01-08T15:08:53.324Z,9.19
2023-01-08T15:11:23.554Z,9.22
2023-01-08T15:13:52.008Z,9.21
2023-01-08T15:16:33.653Z,9.15
2023-01-08T15:19:08.234Z,9.15
2023-01-08T15:21:35.828Z,9.11
2023-01-08T15:24:04.577Z,9.11
2023-01-08T15:26:31.574Z,9.14
2023-01-08T15:29:07.107Z,9.07
2023-01-08T15:31:46.526Z,9.13
2023-01-08T15:34:12.964Z,9.21
2023-01-08T15:36:39.382Z,9.20
2023-01-08T15:39:05.765Z,9.11
2023-01-08T15:41:55.999Z,9.10
2023-01-08T15:44:22.865Z,9.09
2023-01-08T15:46:52.077Z,9.05
2023-01-08T15:49:18.452Z,8.99
2023-01-08T15:51:48.131Z,8.95
2023-01-08T15:54:15.154Z,8.97
2023-01-08T15:56:41.687Z,8.88
2023-01-08T15:59:08.148Z,8.91
2023-01-08T16:01:34.694Z,8.88
2023-01-08T16:04:01.149Z,8.89
2023-01-08T16:06:27.531Z,8.80
2023-01-08T16:08:57.632Z,8.72
2023-01-08T16:11:24.010Z,8.69
2023-01-08T16:13:50.378Z,8.72
2023-01-08T16:16:17.048Z,8.70
2023-01-08T16:18:44.079Z,8.72
2023-01-08T16:21:11.291Z,8.63
2023-01-08T16:23:38.691Z,8.58
2023-01-08T16:26:10.802Z,8.60
2023-01-08T16:28:37.556Z,8.61
2023-01-08T16:31:04.914Z,8.56
2023-01-08T16:33:31.414Z,8.54
2023-01-08T16:35:59.685Z,8.53
2023-01-08T16:38:26.123Z,8.55
2023-01-08T16:40:53.264Z,8.58
2023-01-08T16:43:19.935Z,8.52
2023-01-08T16:45:47.605Z,8.53
2023-01-08T16:48:14.392Z,8.54
2023-01-08T16:50:42.289Z,8.52
2023-01-08T16:53:09.127Z,8.55
2023-01-08T16:55:41.798Z,8.53
2023-01-08T16:58:09.347Z,8.58
2023-01-08T17:00:37.557Z,8.61
2023-01-08T17:03:05.116Z,8.66
2023-01-08T17:05:32.601Z,8.62
2023-01-08T17:07:58.962Z,8.50
2023-01-08T17:10:26.397Z,8.54
2023-01-08T17:12:52.911Z,8.51
2023-01-08T17:15:19.299Z,8.49
2023-01-08T17:17:45.697Z,8.55
2023-01-08T17:20:12.302Z,8.50
2023-01-08T17:22:38.696Z,8.51
2023-01-08T17:25:05.498Z,8.49
2023-01-08T17:27:34.772Z,8.41
2023-01-08T17:30:01.292Z,8.43
2023-01-08T17:32:29.875Z,8.40
2023-01-08T17:34:56.299Z,8.42
2023-01-08T17:37:22.748Z,8.50
2023-01-08T17:39:49.162Z,8.54
2023-01-08T17:42:24.653Z,8.51
2023-01-08T17:44:51.873Z,8.52
2023-01-08T17:47:21.979Z,8.45
2023-01-08T17:49:49.961Z,8.49
2023-01-08T17:52:16.535Z,8.51
2023-01-08T17:54:42.951Z,8.53
2023-01-08T17:57:09.421Z,8.50
2023-01-08T17:59:35.979Z,8.41
2023-01-08T18:02:02.417Z,8.48
2023-01-08T18:04:28.941Z,8.52
2023-01-08T18:06:55.420Z,8.52
2023-01-08T18:09:22.010Z,8.56
2023-01-08T18:11:48.583Z,8.54
2023-01-08T18:14:15.045Z,8.53
2023-01-08T18:16:45.432Z,8.58
2023-01-08T18:19:12.703Z,8.59
2023-01-08T18:21:39.070Z,8.48
2023-01-08T18:24:05.815Z,8.46
2023-01-08T18:26:32.186Z,8.50
2023-01-08T18:28:58.626Z,8.54
2023-01-08T18:31:25.102Z,8.52
2023-01-08T18:33:52.415Z,8.48
2023-01-08T18:36:19.747Z,8.44
2023-01-08T18:38:46.459Z,8.39
2023-01-08T18:41:35.722Z,8.40
2023-01-08T18:44:04.233Z,8.45
2023-01-08T18:46:30.938Z,8.40
2023-01-08T18:48:57.441Z,8.26
2023-01-08T18:51:24.090Z,8.28
2023-01-08T18:53:50.524Z,8.37
2023-01-08T18:56:22.127Z,8.39
2023-01-08T18:58:48.576Z,8.35
2023-01-08T19:01:15.197Z,8.33
2023-01-08T19:03:41.659Z,8.32
2023-01-08T19:06:13.294Z,8.34
2023-01-08T19:08:40.835Z,8.32
2023-01-08T19:11:08.954Z,8.25
2023-01-08T19:13:35.615Z,8.28
2023-01-08T19:16:11.474Z,8.28
2023-01-08T19:18:38.395Z,8.22
2023-01-08T19:21:06.763Z,8.25
2023-01-08T19:23:33.258Z,8.31
2023-01-08T19:25:59.924Z,8.37
2023-01-08T19:28:26.328Z,8.36
2023-01-08T19:31:01.652Z,8.38
2023-01-08T19:33:28.361Z,8.32
2023-01-08T19:35:54.844Z,8.26
2023-01-08T19:38:21.248Z,8.27
2023-01-08T19:40:47.725Z,8.29
2023-01-08T19:43:32.518Z,8.22
2023-01-08T19:46:06.073Z,8.28
2023-01-08T19:48:32.669Z,8.35
2023-01-08T19:50:59.504Z,8.36
2023-01-08T19:53:25.937Z,8.40
2023-01-08T19:55:52.303Z,8.32
2023-01-08T19:58:19.433Z,8.31
2023-01-08T20:00:46.367Z,8.21
2023-01-08T20:03:12.921Z,8.24
2023-01-08T20:05:43.223Z,8.17
2023-01-08T20:08:09.709Z,8.24
2023-01-08T20:10:36.094Z,8.25
2023-01-08T20:13:02.498Z,8.32
2023-01-08T20:15:28.891Z,8.36
2023-01-08T20:17:55.344Z,8.35
2023-01-08T20:20:21.797Z,8.36
2023-01-08T20:22:48.217Z,8.28
2023-01-08T20:25:14.649Z,8.26
2023-01-08T20:27:41.106Z,8.33
2023-01-08T20:30:10.281Z,8.29
2023-01-08T20:32:36.822Z,8.32
2023-01-08T20:35:04.383Z,8.24
2023-01-08T20:37:30.860Z,8.27
2023-01-08T20:39:57.259Z,8.26
2023-01-08T20:42:33.360Z,8.29
2023-01-08T20:45:00.303Z,8.35
2023-01-08T20:47:26.768Z,8.32
2023-01-08T20:49:53.153Z,8.25
2023-01-08T20:52:19.566Z,8.25
2023-01-08T20:54:46.082Z,8.26
2023-01-08T20:57:12.442Z,8.27
2023-01-08T20:59:38.880Z,8.34
2023-01-08T21:02:06.068Z,8.34
2023-01-08T21:04:32.597Z,8.24
2023-01-08T21:06:59.085Z,8.25
2023-01-08T21:09:25.521Z,8.29
2023-01-08T21:11:52.108Z,8.28
2023-01-08T21:14:18.466Z,8.31
2023-01-08T21:16:44.956Z,8.24
2023-01-08T21:19:11.586Z,8.24
2023-01-08T21:21:40.196Z,8.31
2023-01-08T21:24:09.533Z,8.40
2023-01-08T21:26:37.361Z,8.37
2023-01-08T21:29:06.342Z,8.42
2023-01-08T21:31:33.879Z,8.45
2023-01-08T21:34:03.983Z,8.33
2023-01-08T21:36:33.509Z,8.24
2023-01-08T21:39:01.449Z,8.29
2023-01-08T21:41:47.726Z,8.30
2023-01-08T21:44:36.108Z,8.31
2023-01-08T21:47:05.008Z,8.22
2023-01-08T21:49:31.844Z,8.17
2023-01-08T21:52:16.995Z,8.19
2023-01-08T21:54:43.353Z,8.28
2023-01-08T21:57:09.952Z,8.30
2023-01-08T21:59:36.710Z,8.32
2023-01-08T22:02:04.722Z,8.21
2023-01-08T22:04:31.229Z,8.24
2023-01-08T22:06:57.839Z,8.23
2023-01-08T22:09:24.286Z,8.21
2023-01-08T22:11:50.765Z,8.21
2023-01-08T22:14:17.284Z,8.28
2023-01-08T22:16:43.772Z,8.29
2023-01-08T22:19:10.524Z,8.28
2023-01-08T22:21:37.026Z,8.30
2023-01-08T22:24:03.769Z,8.30
2023-01-08T22:26:30.438Z,8.31
2023-01-08T22:28:56.838Z,8.29
2023-01-08T22:31:23.253Z,8.30
2023-01-08T22:33:54.096Z,8.32
2023-01-08T22:36:20.547Z,8.32
2023-01-08T22:38:47.016Z,8.33
2023-01-08T22:41:20.093Z,8.32
2023-01-08T22:43:46.615Z,8.23
2023-01-08T22:46:15.600Z,8.12
2023-01-08T22:48:43.043Z,8.13
2023-01-08T22:51:10.342Z,8.17
2023-01-08T22:53:37.104Z,8.14
2023-01-08T22:56:10.441Z,8.10
2023-01-08T22:58:36.832Z,8.09
2023-01-08T23:01:03.288Z,8.10
2023-01-08T23:03:29.781Z,8.13
2023-01-08T23:06:03.257Z,8.14
2023-01-08T23:08:29.720Z,8.18
2023-01-08T23:10:57.267Z,8.18
2023-01-08T23:13:24.045Z,8.23
2023-01-08T23:15:50.489Z,8.21
2023-01-08T23:18:16.972Z,8.18
2023-01-08T23:20:43.461Z,8.12
2023-01-08T23:23:09.861Z,8.11
2023-01-08T23:25:36.297Z,8.11
2023-01-08T23:28:02.900Z,8.14
2023-01-08T23:30:31.422Z,8.11
2023-01-08T23:32:58.658Z,8.08
2023-01-08T23:35:25.152Z,8.12
2023-01-08T23:37:52.054Z,8.14
2023-01-08T23:40:19.032Z,8.13
2023-01-08T23:42:45.418Z,8.11
2023-01-08T23:45:11.787Z,8.09
2023-01-08T23:47:38.245Z,8.04
2023-01-08T23:50:05.063Z,8.06
2023-01-08T23:52:31.499Z,8.05
2023-01-08T23:54:57.925Z,8.06
2023-01-08T23:57:24.378Z,8.00
2023-01-08T23:59:50.809Z,8.00
